EGLC

London City Airport

London, United Kingdom
METAR EGLC 160920Z AUTO 12005KT 100V160 3300 BR OVC002 10/10 Q1026
Observed Flight Rules
Nov-16 @ 09:20 UTC (25 minutes ago) Instrument Flight Rules
Wind Visibility Clouds Conditions
120° at 5 knots 3,299 meters
  • Overcast at 200' AGL
  • Mist
Temperatures Readings
Current 10°C / 50°F
Dewpoint 10°C / 50°F
Humidity 100%
Altimeter 30.3" Hg
Pressure 1026 hPa
Elevation 5
METAR EGLC 160920Z AUTO 12005KT 100V160 3300 BR OVC002 10/10 Q1026
Observed Flight Rules
Nov-16 @ 09:20 UTC
(25 minutes ago)
LIFR
Wind Visibility
120° at 5 knots 3,299 meters
Clouds
  • Overcast at 200' AGL
Conditions
  • Mist
Temperature Dewpoint
10°C / 50°F 10°C / 50°F
Humidity Altimeter Pressure
100% 30.3" Hg 1026 hPa